Time;durP1;ratioP1;P1;durP2;ratioP2;P2;SDS_P1;SDS_P2;PMS_P1;PMS_P2;Temp;Humidity;BMP_temperature;BMP_pressure;BME280_temperature;BME280_humidity;BME280_pressure;Samples;Min_cycle;Max_cycle;Signal;HPM_P1;HPM_P2
2022/07/12 00:00:16;;;;;;;;;2.60;2.60;;;;;23.59;100.00;101818.69;4941321;28;45516;-92
2022/07/12 00:05:18;;;;;;;;;2.80;2.80;;;;;23.52;100.00;101825.78;5603149;23;46168;-90
2022/07/12 00:07:43;;;;;;;;;2.00;2.00;;;;;23.45;100.00;101822.88;4913324;29;44790;-90
2022/07/12 00:10:09;;;;;;;;;3.25;3.00;;;;;23.41;100.00;101821.50;4899312;29;45307;-89
2022/07/12 00:12:34;;;;;;;;;2.75;2.75;;;;;23.38;100.00;101816.38;4891213;29;44682;-90
2022/07/12 00:15:00;;;;;;;;;2.50;2.50;;;;;23.33;100.00;101810.59;4908101;29;44596;-88
2022/07/12 00:17:29;;;;;;;;;2.50;2.50;;;;;23.30;100.00;101803.59;5301526;23;45789;-91
2022/07/12 00:19:55;;;;;;;;;4.40;3.80;;;;;23.28;100.00;101810.22;4945634;28;45290;-90
2022/07/12 00:22:22;;;;;;;;;2.50;2.50;;;;;23.21;100.00;101809.13;4935603;28;44764;-92
2022/07/12 00:24:47;;;;;;;;;3.00;3.00;;;;;23.20;100.00;101807.44;4928440;28;44869;-90
2022/07/12 00:27:13;;;;;;;;;3.50;3.50;;;;;23.16;100.00;101801.50;4930598;28;44768;-91
2022/07/12 00:29:38;;;;;;;;;4.00;4.00;;;;;23.11;100.00;101809.22;4930798;28;45303;-90
2022/07/12 00:32:04;;;;;;;;;3.00;3.00;;;;;23.06;100.00;101808.84;4927892;28;44750;-91
2022/07/12 00:34:30;;;;;;;;;2.50;2.50;;;;;23.02;100.00;101812.91;4927825;28;44830;-89
2022/07/12 00:36:55;;;;;;;;;3.50;3.50;;;;;23.04;100.00;101819.88;4913731;28;44953;-90
2022/07/12 00:39:23;;;;;;;;;3.00;3.00;;;;;22.99;100.00;101810.50;4936272;28;46206;-93
2022/07/12 00:42:15;;;;;;;;;3.00;3.00;;;;;22.99;100.00;101813.22;4945332;28;44575;-93
2022/07/12 00:44:45;;;;;;;;;2.00;2.00;;;;;22.93;100.00;101805.72;4944329;28;44566;-93
2022/07/12 00:47:44;;;;;;;;;3.00;3.00;;;;;22.86;100.00;101807.31;4947125;28;44821;-93
2022/07/12 00:50:34;;;;;;;;;4.00;2.80;;;;;22.79;100.00;101802.53;4944354;28;45118;-94
2022/07/12 00:53:41;;;;;;;;;2.00;1.00;;;;;22.72;100.00;101792.47;4939321;28;44801;-93
2022/07/12 00:56:07;;;;;;;;;2.80;2.80;;;;;22.71;100.00;101793.47;4929850;28;45435;-90
2022/07/12 00:58:32;;;;;;;;;4.00;4.00;;;;;22.68;100.00;101791.94;4928124;28;44840;-91
2022/07/12 01:00:58;;;;;;;;;2.75;2.75;;;;;22.63;100.00;101798.81;4925996;28;45086;-90
2022/07/12 01:03:27;;;;;;;;;3.00;3.00;;;;;22.60;100.00;101800.00;4927861;28;45370;-94
2022/07/12 01:09:59;;;;;;;;;3.20;3.20;;;;;22.54;100.00;101792.50;4944875;28;44598;-94
2022/07/12 01:12:34;;;;;;;;;3.20;3.20;;;;;22.45;100.00;101788.00;4944204;28;45238;-93
2022/07/12 01:15:32;;;;;;;;;4.80;3.00;;;;;22.43;100.00;101796.25;4943944;28;44786;-94
2022/07/12 01:21:28;;;;;;;;;1.80;1.60;;;;;22.37;100.00;101807.72;4944573;28;44623;-93
2022/07/12 01:27:03;;;;;;;;;3.00;2.00;;;;;22.36;100.00;101811.44;4936505;23;46075;-91
2022/07/12 01:29:33;;;;;;;;;4.00;4.00;;;;;22.29;100.00;101799.53;5129064;23;44895;-93
2022/07/12 01:37:41;;;;;;;;;2.80;2.80;;;;;22.21;100.00;101797.56;4952990;23;44737;-89
2022/07/12 01:40:09;;;;;;;;;3.00;3.00;;;;;22.21;100.00;101791.31;4937152;28;44838;-90
2022/07/12 01:42:35;;;;;;;;;4.20;3.60;;;;;22.18;100.00;101789.75;4937099;28;44802;-90
2022/07/12 01:45:01;;;;;;;;;3.25;3.00;;;;;22.16;100.00;101791.78;4935197;28;45420;-89
2022/07/12 01:47:31;;;;;;;;;4.20;4.20;;;;;22.15;100.00;101791.94;4939941;28;44636;-91
2022/07/12 01:49:57;;;;;;;;;4.00;4.00;;;;;22.15;100.00;101784.66;4938879;28;44809;-88
2022/07/12 01:52:23;;;;;;;;;5.00;3.50;;;;;22.14;100.00;101791.06;4938777;28;44977;-89
2022/07/12 01:54:49;;;;;;;;;4.60;4.60;;;;;22.11;100.00;101791.38;4938868;28;45576;-90
2022/07/12 01:57:37;;;;;;;;;7.50;5.00;;;;;22.08;100.00;101797.91;4934536;28;44723;-93
2022/07/12 02:00:08;;;;;;;;;3.40;3.40;;;;;22.03;100.00;101785.84;4943602;28;44615;-93
2022/07/12 02:02:35;;;;;;;;;3.60;3.60;;;;;22.01;100.00;101785.16;4942998;28;44964;-93
2022/07/12 02:05:06;;;;;;;;;6.00;3.20;;;;;22.01;100.00;101801.38;4927019;28;45087;-92
2022/07/12 02:07:39;;;;;;;;;3.00;3.00;;;;;21.95;100.00;101792.03;4941718;28;44835;-93
2022/07/12 02:10:07;;;;;;;;;4.20;4.20;;;;;21.95;100.00;101793.84;4926331;28;44766;-92
2022/07/12 02:12:38;;;;;;;;;5.00;5.00;;;;;21.90;100.00;101788.03;4941502;28;44796;-93
2022/07/12 02:15:07;;;;;;;;;4.20;4.20;;;;;21.85;100.00;101785.78;4911991;28;45345;-93
2022/07/12 02:17:37;;;;;;;;;4.20;4.20;;;;;21.85;100.00;101799.31;4944330;28;44724;-93
2022/07/12 02:20:06;;;;;;;;;4.00;4.00;;;;;21.80;100.00;101798.91;4926577;28;45215;-94
2022/07/12 02:22:43;;;;;;;;;5.00;4.00;;;;;21.75;100.00;101795.81;4937602;28;44978;-93
2022/07/12 02:25:11;;;;;;;;;4.00;4.00;;;;;21.72;100.00;101785.31;4934729;28;46756;-93
2022/07/12 02:27:40;;;;;;;;;4.20;3.80;;;;;21.72;100.00;101793.41;4925802;28;45230;-90
2022/07/12 02:30:09;;;;;;;;;3.20;3.20;;;;;21.70;100.00;101785.44;4933986;28;44825;-92
2022/07/12 02:32:36;;;;;;;;;4.40;4.40;;;;;21.69;100.00;101794.56;4930715;28;44829;-90
2022/07/12 02:35:04;;;;;;;;;4.80;4.00;;;;;21.68;100.00;101800.97;4926008;28;45001;-92
2022/07/12 02:37:30;;;;;;;;;3.60;3.60;;;;;21.66;100.00;101802.09;4924910;28;44803;-90
2022/07/12 02:40:53;;;;;;;;;5.00;4.00;;;;;21.64;100.00;101804.13;4925547;28;44760;-91
2022/07/12 02:42:43;;;;;;;;;4.60;4.60;;;;;21.60;100.00;101797.28;4928454;28;44912;-91
2022/07/12 02:45:09;;;;;;;;;4.00;4.00;;;;;21.58;100.00;101794.75;4929653;28;45225;-90
2022/07/12 02:47:39;;;;;;;;;2.20;2.20;;;;;21.57;100.00;101792.22;4932130;28;44740;-91
2022/07/12 02:50:08;;;;;;;;;4.00;4.00;;;;;21.57;100.00;101801.16;4941820;28;44638;-93
2022/07/12 02:52:35;;;;;;;;;4.60;4.00;;;;;21.54;100.00;101794.19;4942203;28;45234;-93
2022/07/12 02:55:02;;;;;;;;;7.00;5.20;;;;;21.57;100.00;101803.03;4938716;28;45413;-94
2022/07/12 02:57:33;;;;;;;;;6.60;4.00;;;;;21.53;100.00;101797.06;4926840;28;44597;-93
2022/07/12 03:00:07;;;;;;;;;5.40;4.00;;;;;21.56;100.00;101807.56;4938866;28;44750;-93
2022/07/12 03:02:36;;;;;;;;;4.80;4.80;;;;;21.51;100.00;101810.69;4938896;28;45026;-92
2022/07/12 03:05:06;;;;;;;;;6.60;5.00;;;;;21.52;100.00;101820.53;4938275;28;45116;-92
2022/07/12 03:07:42;;;;;;;;;4.80;4.80;;;;;21.52;100.00;101812.44;4937577;28;44688;-91
2022/07/12 03:10:10;;;;;;;;;5.60;4.40;;;;;21.52;100.00;101809.72;4936508;28;44712;-93
2022/07/12 03:12:41;;;;;;;;;7.20;5.40;;;;;21.52;100.00;101815.13;4931884;28;44887;-94
2022/07/12 03:15:09;;;;;;;;;5.00;5.00;;;;;21.51;100.00;101818.81;4913851;28;45237;-94
2022/07/12 03:17:38;;;;;;;;;4.20;4.20;;;;;21.47;100.00;101806.63;4931503;28;44765;-93
2022/07/12 03:20:11;;;;;;;;;4.00;4.00;;;;;21.52;100.00;101815.13;4918302;28;44613;-93
2022/07/12 03:22:57;;;;;;;;;5.20;5.20;;;;;21.50;100.00;101816.25;4935275;28;44787;-94
2022/07/12 03:25:30;;;;;;;;;5.40;4.40;;;;;21.48;100.00;101807.47;4932778;28;45410;-95
2022/07/12 03:27:59;;;;;;;;;2.00;0.40;;;;;21.50;100.00;101818.97;4932419;28;44652;-94
2022/07/12 03:30:35;;;;;;;;;5.80;5.00;;;;;21.47;100.00;101813.88;4919867;28;44620;-93
2022/07/12 03:33:03;;;;;;;;;5.60;4.60;;;;;21.45;100.00;101816.69;4940210;28;44781;-94
2022/07/12 03:35:54;;;;;;;;;4.40;4.00;;;;;21.41;100.00;101809.03;4939647;28;45624;-93
2022/07/12 03:38:20;;;;;;;;;6.00;6.00;;;;;21.36;100.00;101812.19;4940074;28;44842;-94
2022/07/12 03:40:48;;;;;;;;;3.75;3.75;;;;;21.35;100.00;101818.59;4943673;28;44805;-94
2022/07/12 03:43:14;;;;;;;;;5.40;4.00;;;;;21.27;100.00;101813.91;4931416;28;44842;-93
2022/07/12 03:45:42;;;;;;;;;5.00;5.00;;;;;21.25;100.00;101813.16;4943400;28;45133;-94
2022/07/12 03:48:12;;;;;;;;;3.80;3.80;;;;;21.23;100.00;101814.34;4921199;28;44665;-92
2022/07/12 03:50:38;;;;;;;;;6.00;6.00;;;;;21.16;100.00;101811.34;4928407;28;44774;-93
2022/07/12 03:53:06;;;;;;;;;4.80;4.80;;;;;21.20;100.00;101818.16;4944012;28;44857;-93
2022/07/12 03:55:32;;;;;;;;;5.20;5.20;;;;;21.17;100.00;101821.16;4935666;28;45069;-93
2022/07/12 03:57:58;;;;;;;;;5.00;5.00;;;;;21.15;100.00;101825.84;4916982;28;44680;-92
2022/07/12 04:00:25;;;;;;;;;4.00;4.00;;;;;21.11;100.00;101813.63;4901346;28;44604;-93
2022/07/12 04:02:57;;;;;;;;;6.20;3.80;;;;;21.15;100.00;101828.56;4932006;28;44878;-93
2022/07/12 04:05:25;;;;;;;;;5.20;5.20;;;;;21.19;100.00;101827.28;4900417;28;45297;-93
2022/07/12 04:07:57;;;;;;;;;6.80;5.20;;;;;21.15;100.00;101831.25;4931053;28;44830;-93
2022/07/12 04:10:25;;;;;;;;;4.80;4.80;;;;;21.14;100.00;101828.72;4913331;28;44676;-93
2022/07/12 04:12:55;;;;;;;;;5.00;4.40;;;;;21.20;100.00;101828.13;4930101;28;44825;-93
2022/07/12 04:15:25;;;;;;;;;5.00;5.00;;;;;21.31;100.00;101838.78;4931715;28;46123;-93
2022/07/12 04:17:51;;;;;;;;;4.00;4.00;;;;;21.36;100.00;101841.91;4914982;28;44861;-93
2022/07/12 04:20:17;;;;;;;;;5.75;5.75;;;;;21.47;100.00;101844.47;4926867;28;45280;-90
2022/07/12 04:22:42;;;;;;;;;4.50;4.50;;;;;21.57;100.00;101843.59;4927458;28;44776;-90
2022/07/12 04:25:09;;;;;;;;;5.75;5.75;;;;;21.57;100.00;101846.28;4928115;28;46181;-91
2022/07/12 04:27:36;;;;;;;;;5.60;5.60;;;;;21.57;100.00;101847.16;4950103;28;44801;-91
2022/07/12 04:30:02;;;;;;;;;4.40;4.40;;;;;21.55;100.00;101852.69;4933724;28;44676;-90
2022/07/12 04:32:29;;;;;;;;;5.00;3.20;;;;;21.53;100.00;101845.72;4936386;28;44900;-92
2022/07/12 04:34:57;;;;;;;;;7.20;6.00;;;;;21.54;100.00;101853.69;4941149;28;45307;-92
2022/07/12 04:37:24;;;;;;;;;6.40;4.80;;;;;21.50;100.00;101848.72;4942050;28;44760;-92
2022/07/12 04:39:54;;;;;;;;;5.80;5.80;;;;;21.47;100.00;101849.88;4923174;28;44913;-92
2022/07/12 04:42:22;;;;;;;;;5.20;4.40;;;;;21.44;100.00;101846.59;4938757;28;44837;-94
2022/07/12 04:44:51;;;;;;;;;4.60;4.60;;;;;21.43;100.00;101851.16;4916895;28;45014;-94
2022/07/12 04:47:19;;;;;;;;;6.40;5.20;;;;;21.38;100.00;101844.50;4933659;28;44602;-93
2022/07/12 04:49:50;;;;;;;;;4.00;3.60;;;;;21.40;100.00;101851.44;4936455;28;44745;-94
2022/07/12 04:52:24;;;;;;;;;5.00;5.00;;;;;21.40;100.00;101850.59;4935269;28;44793;-93
2022/07/12 04:54:55;;;;;;;;;5.00;4.60;;;;;21.46;100.00;101852.69;4933540;28;45187;-94
2022/07/12 04:57:21;;;;;;;;;5.80;4.20;;;;;21.51;100.00;101851.25;4918418;28;44715;-93
2022/07/12 04:59:50;;;;;;;;;6.50;6.50;;;;;21.59;100.00;101846.97;4933606;28;44838;-94
2022/07/12 05:02:19;;;;;;;;;5.20;5.20;;;;;21.75;100.00;101849.91;4918227;28;44901;-94
2022/07/12 05:04:49;;;;;;;;;4.00;4.00;;;;;21.94;100.00;101854.38;4935273;28;45199;-93
2022/07/12 05:07:15;;;;;;;;;4.40;4.40;;;;;22.18;100.00;101860.13;4933552;28;44772;-93
2022/07/12 05:09:42;;;;;;;;;5.80;5.80;;;;;22.46;100.00;101863.66;4925295;28;44705;-90
2022/07/12 05:12:07;;;;;;;;;6.25;5.50;;;;;22.81;100.00;101854.69;4926148;28;44845;-91
2022/07/12 05:14:33;;;;;;;;;5.00;5.00;;;;;23.15;100.00;101864.84;4911922;28;46157;-91
2022/07/12 05:17:02;;;;;;;;;5.40;3.80;;;;;23.49;100.00;101869.50;4931811;28;44646;-93
2022/07/12 05:19:31;;;;;;;;;4.20;4.20;;;;;23.82;100.00;101867.88;4922248;28;44674;-94
2022/07/12 05:21:58;;;;;;;;;4.00;4.00;;;;;24.12;100.00;101871.91;4929949;28;44920;-94
2022/07/12 05:24:26;;;;;;;;;5.60;5.40;;;;;24.42;100.00;101872.38;4947193;28;45122;-93
2022/07/12 05:26:51;;;;;;;;;3.80;3.80;;;;;24.68;100.00;101872.28;4947878;28;44768;-90
2022/07/12 05:29:17;;;;;;;;;5.00;4.25;;;;;24.75;100.00;101876.00;4934866;28;44741;-91
2022/07/12 05:31:44;;;;;;;;;4.75;4.75;;;;;24.80;100.00;101888.09;4944441;28;44896;-90
2022/07/12 05:34:09;;;;;;;;;4.40;4.40;;;;;24.90;100.00;101881.63;4945171;28;45374;-90
2022/07/12 05:36:34;;;;;;;;;4.25;4.25;;;;;25.11;100.00;101887.47;4936473;28;44796;-92
2022/07/12 05:39:00;;;;;;;;;5.75;5.75;;;;;25.23;100.00;101885.25;4924507;28;44786;-91
2022/07/12 05:41:26;;;;;;;;;6.00;4.00;;;;;25.43;100.00;101883.84;4927372;28;44871;-90
2022/07/12 05:43:51;;;;;;;;;3.75;3.75;;;;;25.59;100.00;101894.72;4925979;28;45294;-93
2022/07/12 05:46:18;;;;;;;;;5.00;3.25;;;;;25.75;100.00;101885.69;4926934;28;44642;-91
2022/07/12 05:48:43;;;;;;;;;3.20;3.20;;;;;25.88;100.00;101885.16;4924908;28;44615;-91
2022/07/12 05:53:55;;;;;;;;;5.60;4.80;;;;;25.99;100.00;101898.38;4925990;28;45041;-91
2022/07/12 05:56:20;;;;;;;;;6.80;5.20;;;;;25.78;100.00;101889.97;4925134;28;44695;-92
2022/07/12 05:58:46;;;;;;;;;4.50;4.50;;;;;25.69;100.00;101894.53;4927553;28;44850;-91
2022/07/12 06:01:12;;;;;;;;;7.25;6.00;;;;;25.61;100.00;101906.28;4936625;28;44760;-91
2022/07/12 06:03:38;;;;;;;;;4.75;4.75;;;;;25.52;100.00;101904.59;4923494;28;46553;-90
2022/07/12 06:06:05;;;;;;;;;4.60;4.20;;;;;25.50;100.00;101912.09;4938284;28;44769;-90
2022/07/12 06:08:31;;;;;;;;;7.80;6.00;;;;;25.34;100.00;101910.25;4938221;28;44711;-90
2022/07/12 06:10:58;;;;;;;;;7.00;6.50;;;;;25.41;100.00;101915.00;4937789;28;44788;-89
2022/07/12 06:13:24;;;;;;;;;8.00;5.80;;;;;25.53;100.00;101908.16;4943371;28;45142;-92
2022/07/12 06:15:50;;;;;;;;;5.80;5.80;;;;;25.70;100.00;101911.72;4942673;28;44618;-90
2022/07/12 06:18:15;;;;;;;;;4.50;4.50;;;;;25.84;100.00;101911.88;4933346;28;44679;-90
2022/07/12 06:20:41;;;;;;;;;6.25;5.00;;;;;25.93;100.00;101918.16;4928328;28;45229;-91
2022/07/12 06:23:06;;;;;;;;;5.75;5.75;;;;;26.07;100.00;101911.16;4927295;28;44902;-90
2022/07/12 06:25:32;;;;;;;;;5.00;5.00;;;;;26.22;100.00;101914.81;4927852;28;44740;-91
2022/07/12 06:28:01;;;;;;;;;6.00;5.00;;;;;26.33;100.00;101921.75;4926727;28;44883;-91
2022/07/12 06:30:27;;;;;;;;;7.60;5.80;;;;;26.44;100.00;101915.09;4927136;28;44712;-91
2022/07/12 06:32:52;;;;;;;;;13.25;13.25;;;;;26.61;100.00;101911.25;4925932;28;45510;-92
2022/07/12 06:35:18;;;;;;;;;5.25;5.25;;;;;26.78;100.00;101920.16;4929099;28;44935;-91
2022/07/12 06:37:43;;;;;;;;;5.00;5.00;;;;;26.76;100.00;101916.78;4927669;28;44742;-91
2022/07/12 06:40:11;;;;;;;;;6.00;6.00;;;;;26.76;100.00;101916.78;4931549;28;44980;-96
2022/07/12 06:42:37;;;;;;;;;5.60;5.60;;;;;26.88;100.00;101912.59;4933134;28;45243;-94
2022/07/12 06:45:09;;;;;;;;;3.80;3.80;;;;;27.13;100.00;101914.16;4932986;28;44768;-94
2022/07/12 06:47:36;;;;;;;;;7.40;7.00;;;;;27.39;100.00;101911.03;4917575;28;44615;-93
2022/07/12 06:50:03;;;;;;;;;5.40;5.40;;;;;27.53;100.00;101908.50;4931056;28;44898;-94
2022/07/12 06:52:30;;;;;;;;;7.00;5.60;;;;;27.64;100.00;101918.97;4914685;28;45173;-95
2022/07/12 06:54:56;;;;;;;;;5.40;5.40;;;;;27.59;100.00;101913.22;4930623;28;44694;-95
2022/07/12 06:57:23;;;;;;;;;13.80;12.40;;;;;27.52;100.00;101918.59;4914280;28;44667;-94
2022/07/12 06:59:51;;;;;;;;;12.40;8.60;;;;;27.52;100.00;101920.47;4931707;28;44857;-95
2022/07/12 07:02:19;;;;;;;;;6.80;6.80;;;;;27.59;100.00;101918.69;4934988;28;45014;-94
2022/07/12 07:05:10;;;;;;;;;6.80;5.00;;;;;27.58;100.00;101922.44;4923482;28;44706;-94
2022/07/12 07:07:37;;;;;;;;;5.00;5.00;;;;;27.77;100.00;101929.28;4938632;28;44854;-95
2022/07/12 07:10:06;;;;;;;;;4.60;4.60;;;;;28.04;100.00;101930.50;4937344;28;44939;-95
2022/07/12 07:12:34;;;;;;;;;9.40;6.00;;;;;28.10;100.00;101929.78;4936913;28;45274;-94
2022/07/12 07:15:02;;;;;;;;;6.40;6.00;;;;;28.25;100.00;101922.41;4938524;28;44677;-94
2022/07/12 07:17:28;;;;;;;;;5.80;5.80;;;;;28.51;100.00;101934.72;4933790;28;44800;-94
2022/07/12 07:19:55;;;;;;;;;6.00;5.50;;;;;28.63;100.00;101931.31;4920772;28;44932;-94
2022/07/12 07:22:23;;;;;;;;;7.00;6.60;;;;;28.80;100.00;101931.91;4919143;28;46774;-94
2022/07/12 07:24:53;;;;;;;;;6.20;6.20;;;;;28.74;96.50;101931.84;4938633;28;44626;-95
2022/07/12 07:27:18;;;;;;;;;7.20;7.20;;;;;28.65;99.64;101925.66;4939095;28;44726;-94
2022/07/12 07:32:32;;;;;;;;;9.60;8.00;;;;;28.49;98.84;101937.69;4942021;28;45066;-93
2022/07/12 08:06:58;;;;;;;;;8.80;6.60;;;;;28.87;96.36;101954.75;4864522;23;46213;-92
2022/07/12 08:09:25;;;;;;;;;5.80;5.80;;;;;28.87;95.25;101948.41;4914040;28;44716;-93
2022/07/12 08:11:50;;;;;;;;;11.80;8.20;;;;;28.84;96.72;101943.31;4916275;28;44639;-94
2022/07/12 08:14:15;;;;;;;;;6.00;5.50;;;;;28.82;96.90;101949.00;4914778;28;44977;-91
2022/07/12 08:16:41;;;;;;;;;8.00;8.00;;;;;28.79;98.00;101941.16;4929744;28;45313;-93
2022/07/12 08:19:07;;;;;;;;;8.75;8.75;;;;;28.76;96.02;101941.53;4928048;28;44620;-92
2022/07/12 08:21:32;;;;;;;;;7.00;7.00;;;;;28.78;97.39;101939.47;4927763;28;44697;-92
2022/07/12 08:23:58;;;;;;;;;8.00;6.50;;;;;28.78;95.75;101949.59;4926668;28;44784;-91
2022/07/12 08:26:23;;;;;;;;;12.00;6.50;;;;;28.75;96.22;101947.22;4927936;28;45514;-91
2022/07/12 08:28:49;;;;;;;;;8.75;7.50;;;;;28.73;97.16;101949.31;4927338;28;44619;-92
2022/07/12 08:31:14;;;;;;;;;4.25;4.25;;;;;28.57;96.10;101945.75;4929314;28;44892;-93
2022/07/12 08:33:40;;;;;;;;;11.50;11.25;;;;;28.45;95.68;101946.44;4937784;28;44908;-91
2022/07/12 08:36:08;;;;;;;;;4.40;4.00;;;;;28.37;96.61;101956.44;4939942;28;45181;-93
2022/07/12 08:38:37;;;;;;;;;13.40;10.00;;;;;28.50;96.52;101944.81;4899833;28;44843;-92
2022/07/12 08:41:05;;;;;;;;;9.00;9.00;;;;;28.59;95.97;101940.94;4937499;28;44760;-92
2022/07/12 08:43:35;;;;;;;;;8.20;7.20;;;;;28.61;95.84;101944.31;4935955;28;44863;-92
2022/07/12 08:46:08;;;;;;;;;8.40;6.00;;;;;28.57;95.10;101944.91;4919565;28;45285;-92
2022/07/12 08:48:34;;;;;;;;;4.80;3.60;;;;;28.46;94.82;101937.19;4916440;28;44764;-91
2022/07/12 08:51:05;;;;;;;;;3.00;3.00;;;;;28.54;95.45;101937.09;4933049;28;44691;-91
2022/07/12 08:53:31;;;;;;;;;6.20;6.20;;;;;28.71;95.08;101941.28;4917925;28;44945;-90
2022/07/12 08:55:57;;;;;;;;;9.00;8.75;;;;;28.98;94.33;101944.34;4922495;28;45303;-91
2022/07/12 08:58:23;;;;;;;;;5.60;4.40;;;;;28.97;89.53;101946.25;4940957;28;44740;-90
2022/07/12 09:00:48;;;;;;;;;3.50;3.50;;;;;28.85;89.40;101939.53;4938846;28;44746;-91
2022/07/12 09:03:14;;;;;;;;;5.00;5.00;;;;;28.88;88.40;101947.38;4918917;28;44884;-91
2022/07/12 09:05:54;;;;;;;;;4.00;4.00;;;;;28.89;88.40;101941.69;4934293;28;45222;-90
2022/07/12 09:08:29;;;;;;;;;4.20;4.20;;;;;28.88;88.66;101947.38;4899427;29;44846;-90
2022/07/12 09:10:58;;;;;;;;;3.00;3.00;;;;;28.81;88.51;101950.03;4917612;29;44661;-90
2022/07/12 09:13:56;;;;;;;;;4.40;4.40;;;;;28.73;88.25;101944.69;4914882;29;44869;-91
2022/07/12 09:16:23;;;;;;;;;5.80;4.00;;;;;28.91;90.05;101949.69;4916061;29;44969;-92
2022/07/12 09:18:51;;;;;;;;;4.40;3.60;;;;;29.07;88.82;101941.28;4918918;29;44635;-91
2022/07/12 09:21:29;;;;;;;;;5.60;5.60;;;;;29.27;87.27;101946.94;4923950;29;44766;-92
2022/07/12 09:23:57;;;;;;;;;3.80;2.80;;;;;29.45;86.73;101941.00;4895278;29;44901;-91
2022/07/12 09:26:24;;;;;;;;;5.80;4.00;;;;;29.57;85.22;101952.28;4892600;29;46786;-92
2022/07/12 09:28:51;;;;;;;;;4.00;2.80;;;;;29.63;84.60;101954.22;4890420;29;44999;-91
2022/07/12 09:31:17;;;;;;;;;4.20;4.20;;;;;29.56;82.61;101947.88;4890514;29;45341;-93
2022/07/12 09:36:54;;;;;;;;;3.80;3.80;;;;;29.90;79.77;101953.38;4906474;29;45065;-92
2022/07/12 09:39:22;;;;;;;;;2.00;2.00;;;;;29.77;78.13;101952.44;4889710;29;45541;-91
2022/07/12 09:41:49;;;;;;;;;7.00;5.20;;;;;29.91;78.75;101959.69;4911458;29;44795;-91
2022/07/12 09:44:18;;;;;;;;;4.00;3.00;;;;;30.09;78.04;101959.19;4916077;29;44928;-90
2022/07/12 09:46:44;;;;;;;;;4.20;4.20;;;;;30.15;78.59;101958.41;4914012;29;46198;-91
2022/07/12 09:49:10;;;;;;;;;5.80;4.60;;;;;30.28;77.16;101953.00;4897559;29;44696;-91
2022/07/12 09:51:38;;;;;;;;;5.20;4.00;;;;;30.31;77.55;101951.72;4911018;29;44764;-92
2022/07/12 09:54:07;;;;;;;;;4.00;4.00;;;;;30.30;72.08;101956.38;4889334;29;44900;-92
2022/07/12 09:56:35;;;;;;;;;5.40;4.60;;;;;30.00;68.39;101953.00;4889000;29;45510;-91
2022/07/12 10:05:47;;;;;;;;;2.60;2.60;;;;;30.50;64.99;101961.94;5460412;23;46016;-93
2022/07/12 10:08:13;;;;;;;;;3.40;3.40;;;;;30.64;60.75;101963.69;4951015;28;45150;-93
2022/07/12 10:10:39;;;;;;;;;4.80;3.80;;;;;30.75;59.53;101967.75;4948615;28;44755;-92
2022/07/12 10:20:50;;;;;;;;;5.40;5.40;;;;;30.99;62.35;101960.84;4171461;23;45978;-91
2022/07/12 10:23:16;;;;;;;;;3.75;3.75;;;;;31.01;59.16;101971.66;4892151;29;44773;-91
2022/07/12 10:25:42;;;;;;;;;7.50;5.00;;;;;31.03;59.84;101967.63;4893811;29;44799;-92
2022/07/12 10:28:08;;;;;;;;;6.75;4.75;;;;;30.98;64.79;101965.50;4912381;29;45001;-92
2022/07/12 10:30:45;;;;;;;;;7.40;5.20;;;;;30.91;64.29;101964.66;4896712;29;44778;-91
2022/07/12 10:33:19;;;;;;;;;3.40;3.00;;;;;30.95;63.85;101960.44;4896196;29;45296;-90
2022/07/12 10:36:05;;;;;;;;;4.80;4.80;;;;;31.00;64.03;101961.72;4915186;29;44892;-92
2022/07/12 10:38:31;;;;;;;;;5.80;5.80;;;;;31.08;64.54;101954.09;5175106;23;45693;-91
2022/07/12 10:40:57;;;;;;;;;4.40;4.20;;;;;31.17;62.29;101958.34;4910662;29;45059;-90
2022/07/12 10:46:28;;;;;;;;;4.80;4.80;;;;;31.28;62.15;101942.34;4848591;29;44767;-92
2022/07/12 10:49:26;;;;;;;;;4.00;4.00;;;;;31.38;59.84;101951.88;4825410;29;46439;-92
2022/07/12 10:52:10;;;;;;;;;5.20;5.20;;;;;31.42;59.96;101944.88;4837948;29;44681;-94
2022/07/12 10:54:56;;;;;;;;;4.80;4.80;;;;;31.45;58.07;101949.94;4849099;29;44802;-92
2022/07/12 10:57:43;;;;;;;;;4.00;4.00;;;;;31.35;57.42;101948.69;4823883;29;44919;-93
2022/07/12 11:00:09;;;;;;;;;6.80;5.00;;;;;31.43;58.41;101949.34;4828869;29;45166;-92
2022/07/12 11:02:35;;;;;;;;;5.20;5.20;;;;;31.48;58.44;101954.19;4829732;29;44688;-94
2022/07/12 11:05:04;;;;;;;;;7.80;6.40;;;;;31.61;58.66;101953.31;4831097;29;44811;-92
2022/07/12 11:07:33;;;;;;;;;4.80;4.00;;;;;31.42;53.02;101957.75;4832312;29;44840;-92
2022/07/12 11:09:58;;;;;;;;;5.00;5.00;;;;;31.35;53.76;101956.94;4833167;29;45159;-92
2022/07/12 11:12:33;;;;;;;;;6.75;5.25;;;;;31.42;50.80;101946.78;4820001;29;44623;-93
2022/07/12 11:15:00;;;;;;;;;4.00;4.00;;;;;31.49;49.34;101947.63;4835866;29;44750;-91
2022/07/12 11:17:27;;;;;;;;;5.20;5.20;;;;;31.54;50.79;101947.00;4832579;29;44914;-92
2022/07/12 11:20:09;;;;;;;;;4.60;3.80;;;;;31.74;51.43;101948.66;4832963;29;45475;-92
2022/07/12 11:22:36;;;;;;;;;4.40;4.40;;;;;31.73;49.51;101933.22;4834045;29;44877;-91
2022/07/12 11:25:03;;;;;;;;;7.00;5.20;;;;;31.87;50.93;101945.09;4895414;29;44676;-92
2022/07/12 11:27:28;;;;;;;;;4.20;3.60;;;;;32.04;49.40;101948.19;4894943;29;45365;-91
2022/07/12 11:30:00;;;;;;;;;5.50;4.50;;;;;32.17;49.73;101939.09;4889651;29;46813;-92
2022/07/12 11:32:40;;;;;;;;;6.00;6.00;;;;;32.27;49.56;101933.97;4908592;29;44700;-92
2022/07/12 11:35:25;;;;;;;;;5.00;5.00;;;;;32.42;50.76;101936.47;4894132;29;44703;-93
2022/07/12 11:37:56;;;;;;;;;3.60;3.00;;;;;32.58;50.88;101940.63;4909692;29;44773;-89
2022/07/12 11:40:23;;;;;;;;;3.80;3.80;;;;;32.63;46.45;101936.13;4903731;28;45267;-89
2022/07/12 11:43:00;;;;;;;;;5.00;4.20;;;;;32.48;46.03;101941.94;4904691;29;44809;-88
2022/07/12 11:45:27;;;;;;;;;6.00;6.00;;;;;32.53;47.80;101941.28;4905049;29;45344;-90
2022/07/12 11:47:53;;;;;;;;;5.00;5.00;;;;;32.57;50.21;101930.69;4907017;29;44868;-89
2022/07/12 11:50:19;;;;;;;;;5.00;5.00;;;;;32.68;47.97;101928.06;4890250;29;46798;-89
2022/07/12 11:52:45;;;;;;;;;4.20;4.20;;;;;32.79;43.62;101932.06;4908433;29;44825;-91
2022/07/12 11:55:10;;;;;;;;;7.00;7.00;;;;;32.79;44.58;101925.69;4908262;29;44752;-92
2022/07/12 11:57:36;;;;;;;;;4.00;4.00;;;;;32.68;42.74;101930.81;4890950;29;44948;-92
2022/07/12 12:00:22;;;;;;;;;4.00;3.50;;;;;32.58;46.05;101924.94;4891613;29;45173;-90
2022/07/12 12:02:51;;;;;;;;;4.20;3.60;;;;;32.25;44.18;101919.56;4907171;29;44790;-91
2022/07/12 12:05:21;;;;;;;;;4.00;4.00;;;;;32.26;42.07;101914.94;4907426;29;44830;-91
2022/07/12 12:07:48;;;;;;;;;3.80;3.80;;;;;32.55;44.10;101919.91;4963167;23;44874;-93
2022/07/12 12:10:18;;;;;;;;;5.40;5.40;;;;;32.79;44.11;101920.19;4912931;29;45236;-92
2022/07/12 12:12:54;;;;;;;;;4.00;4.00;;;;;32.91;43.18;101904.66;4894652;29;44795;-92
2022/07/12 12:15:25;;;;;;;;;4.20;4.20;;;;;33.11;43.22;101907.28;4909806;29;44785;-88
2022/07/12 12:18:06;;;;;;;;;8.20;7.40;;;;;33.27;42.93;101909.50;4908054;29;44785;-92
2022/07/12 12:20:47;;;;;;;;;5.00;5.00;;;;;33.34;42.90;101907.50;4880452;29;47154;-93
2022/07/12 12:23:20;;;;;;;;;5.80;4.00;;;;;33.42;42.09;101904.50;4916437;29;44765;-93
2022/07/12 12:26:38;;;;;;;;;4.20;4.20;;;;;33.43;40.88;101902.59;4923628;28;44960;-93
2022/07/12 12:29:11;;;;;;;;;4.00;4.00;;;;;33.07;41.68;101900.53;4927627;28;44915;-93
2022/07/12 12:32:20;;;;;;;;;5.00;5.00;;;;;33.18;42.45;101902.56;4916036;29;45086;-93
2022/07/12 12:35:09;;;;;;;;;2.20;2.20;;;;;33.40;40.33;101903.00;5370403;23;44931;-91
2022/07/12 12:37:35;;;;;;;;;4.60;3.40;;;;;33.54;36.29;101912.84;4924810;28;44786;-90
2022/07/12 12:40:02;;;;;;;;;3.75;3.75;;;;;33.68;35.92;101899.78;4926079;28;44786;-91
2022/07/12 12:58:01;;;;;;;;;5.60;4.60;;;;;34.54;31.96;101896.03;5738011;23;46065;-91
2022/07/12 13:08:35;;;;;;;;;3.60;3.20;;;;;35.85;32.94;101888.53;5214017;23;45871;-92
2022/07/12 13:11:22;;;;;;;;;2.25;2.25;;;;;36.01;30.88;101882.28;4958984;28;44897;-91